< < Back
Terminal Aerodrome Forecast


Current Version              Previous Versions:   1  2  3  4  5  6  7  8  9  

Terminal Aerodrome Forecast

380
FTUS42 KTAE 302334
TAFDHN
TAF
KDHN 302334Z 0100/0124 24003KT P6SM OVC200
     FM010400 00000KT P6SM SKC
     FM011400 27008KT P6SM SCT040
     FM011900 28011KT P6SM VCTS BKN040CB=



Latest METAR

180
SAUS70 KWBC 011300 RRH
MTRDHN
METAR KDHN 011253Z 23006KT 10SM CLR 24/21 A3013 RMK AO2 SLP198
T02440211


USA.gov is the U.S. government's official web portal to all federal, state and local government web resources and services.